Time;durP1;ratioP1;P1;durP2;ratioP2;P2;SDS_P1;SDS_P2;PMS_P1;PMS_P2;Temp;Humidity;BMP_temperature;BMP_pressure;BME280_temperature;BME280_humidity;BME280_pressure;Samples;Min_cycle;Max_cycle;Signal;HPM_P1;HPM_P2
2022/07/08 12:47:22;;;;;;;0.00;0.00;;;;;;;;;;4965340;28;19922;-92
2022/07/08 12:53:22;;;;;;;0.00;0.00;;;;;;;;;;5010099;28;20029;-94
2022/07/08 15:19:08;;;;;;;0.00;0.00;;;;;;;;;;4954104;29;20047;-88
2022/07/08 15:21:37;;;;;;;0.00;0.00;;;;;;;;;;4938122;29;20047;-88
2022/07/08 15:24:04;;;;;;;0.00;0.00;;;;;;;;;;4954273;29;20043;-88
2022/07/08 15:26:30;;;;;;;0.00;0.00;;;;;;;;;;4953948;29;20394;-88
2022/07/08 15:28:56;;;;;;;0.00;0.00;;;;;;;;;;4955439;29;20050;-89
2022/07/08 15:31:22;;;;;;;0.00;0.00;;;;;;;;;;4954222;28;20072;-90
2022/07/08 15:33:48;;;;;;;0.00;0.00;;;;;;;;;;4954182;29;20050;-89
2022/07/08 15:36:16;;;;;;;0.00;0.00;;;;;;;;;;4953639;29;20059;-88
2022/07/08 15:38:42;;;;;;;0.00;0.00;;;;;;;;;;4938356;29;20042;-88
2022/07/08 15:41:08;;;;;;;0.00;0.00;;;;;;;;;;4937905;29;20082;-89
2022/07/08 15:43:34;;;;;;;0.00;0.00;;;;;;;;;;4954064;29;20146;-87
2022/07/08 15:46:00;;;;;;;0.00;0.00;;;;;;;;;;4937896;29;20044;-89
2022/07/08 15:48:26;;;;;;;0.00;0.00;;;;;;;;;;4954073;29;20049;-88
2022/07/08 15:50:52;;;;;;;0.00;0.00;;;;;;;;;;4937974;29;20102;-88
2022/07/08 15:53:19;;;;;;;0.00;0.00;;;;;;;;;;4953714;28;20065;-87
2022/07/08 15:55:45;;;;;;;0.00;0.00;;;;;;;;;;4938148;29;20098;-86
2022/07/08 15:58:11;;;;;;;0.00;0.00;;;;;;;;;;4954957;29;20047;-88
2022/07/08 16:00:37;;;;;;;0.00;0.00;;;;;;;;;;4937989;29;20047;-89
2022/07/08 16:03:03;;;;;;;0.00;0.00;;;;;;;;;;4953057;28;20043;-88
2022/07/08 16:05:30;;;;;;;0.00;0.00;;;;;;;;;;4937677;29;20475;-88
2022/07/08 16:07:57;;;;;;;0.00;0.00;;;;;;;;;;4937853;29;20378;-89
2022/07/08 16:10:23;;;;;;;0.00;0.00;;;;;;;;;;4937500;29;20083;-89
2022/07/08 16:12:49;;;;;;;0.00;0.00;;;;;;;;;;4937705;29;20444;-89
2022/07/08 16:15:15;;;;;;;0.00;0.00;;;;;;;;;;4937535;29;20054;-89
2022/07/08 16:17:41;;;;;;;0.00;0.00;;;;;;;;;;4937512;29;20122;-89
2022/07/08 16:20:08;;;;;;;0.00;0.00;;;;;;;;;;4937751;29;20035;-89
2022/07/08 16:22:34;;;;;;;0.00;0.00;;;;;;;;;;4937268;29;20043;-89
2022/07/08 16:25:00;;;;;;;0.00;0.00;;;;;;;;;;4937736;29;20066;-88
2022/07/08 16:27:26;;;;;;;0.00;0.00;;;;;;;;;;4937250;29;20509;-90
2022/07/08 16:29:52;;;;;;;0.00;0.00;;;;;;;;;;4937429;29;20047;-89
2022/07/08 16:32:18;;;;;;;0.00;0.00;;;;;;;;;;4937382;29;20130;-90
2022/07/08 16:34:44;;;;;;;0.00;0.00;;;;;;;;;;4937737;29;20109;-90
2022/07/08 16:37:10;;;;;;;0.00;0.00;;;;;;;;;;4937261;29;20063;-90
2022/07/08 16:39:36;;;;;;;0.00;0.00;;;;;;;;;;4937633;28;20099;-89
2022/07/08 16:42:03;;;;;;;0.00;0.00;;;;;;;;;;4937150;29;20401;-88
2022/07/08 16:44:29;;;;;;;0.00;0.00;;;;;;;;;;4937270;29;20047;-89
2022/07/08 16:46:55;;;;;;;0.00;0.00;;;;;;;;;;4937073;29;20402;-88
2022/07/08 16:49:21;;;;;;;0.00;0.00;;;;;;;;;;4937377;29;20039;-87
2022/07/08 16:51:47;;;;;;;0.00;0.00;;;;;;;;;;4937109;29;20515;-89
2022/07/08 16:54:13;;;;;;;0.00;0.00;;;;;;;;;;4937131;29;20046;-89
2022/07/08 16:56:42;;;;;;;0.00;0.00;;;;;;;;;;4937144;29;20130;-90
2022/07/08 16:59:09;;;;;;;0.00;0.00;;;;;;;;;;4939521;29;20043;-88
2022/07/08 17:01:35;;;;;;;0.00;0.00;;;;;;;;;;4937035;29;20047;-89
2022/07/08 17:04:01;;;;;;;0.00;0.00;;;;;;;;;;4936892;29;20047;-88
2022/07/08 17:06:27;;;;;;;0.00;0.00;;;;;;;;;;4938952;29;20045;-88
2022/07/08 17:08:53;;;;;;;0.00;0.00;;;;;;;;;;4940521;29;20251;-87
2022/07/08 17:11:21;;;;;;;0.00;0.00;;;;;;;;;;4940782;29;20515;-90
2022/07/08 17:13:48;;;;;;;0.00;0.00;;;;;;;;;;4940591;29;20043;-90
2022/07/08 17:16:13;;;;;;;0.00;0.00;;;;;;;;;;4940723;29;20112;-89
2022/07/08 17:18:40;;;;;;;0.00;0.00;;;;;;;;;;4940406;29;20043;-88
2022/07/08 17:21:07;;;;;;;0.00;0.00;;;;;;;;;;4940484;29;20058;-90
2022/07/08 17:23:33;;;;;;;0.00;0.00;;;;;;;;;;4940188;29;20410;-91
2022/07/08 17:25:59;;;;;;;0.00;0.00;;;;;;;;;;4940502;29;20414;-86
2022/07/08 17:28:25;;;;;;;0.00;0.00;;;;;;;;;;4940327;29;20046;-92
2022/07/08 17:30:51;;;;;;;0.00;0.00;;;;;;;;;;4940495;29;20481;-88
2022/07/08 17:33:17;;;;;;;0.00;0.00;;;;;;;;;;4940175;29;20076;-89
2022/07/08 17:35:43;;;;;;;0.00;0.00;;;;;;;;;;4940582;29;20059;-90
2022/07/08 17:38:09;;;;;;;0.00;0.00;;;;;;;;;;4940314;29;20134;-89
2022/07/08 17:40:35;;;;;;;0.00;0.00;;;;;;;;;;4940277;29;20201;-91
2022/07/08 17:43:01;;;;;;;0.00;0.00;;;;;;;;;;4940121;29;20053;-90
2022/07/08 17:45:27;;;;;;;0.00;0.00;;;;;;;;;;4940040;29;20051;-89
2022/07/08 17:47:53;;;;;;;0.00;0.00;;;;;;;;;;4940262;29;20126;-89
2022/07/08 17:50:19;;;;;;;0.00;0.00;;;;;;;;;;4940163;29;20046;-92
2022/07/08 17:52:45;;;;;;;0.00;0.00;;;;;;;;;;4939966;29;20039;-92
2022/07/08 17:55:11;;;;;;;0.00;0.00;;;;;;;;;;4940298;29;20479;-91
2022/07/08 17:57:37;;;;;;;0.00;0.00;;;;;;;;;;4939850;29;20054;-90
2022/07/08 18:00:05;;;;;;;0.00;0.00;;;;;;;;;;4939840;29;20082;-90
2022/07/08 18:02:31;;;;;;;0.00;0.00;;;;;;;;;;4939872;29;20079;-92
2022/07/08 18:04:57;;;;;;;0.00;0.00;;;;;;;;;;4939925;29;20403;-89
2022/07/08 18:07:24;;;;;;;0.00;0.00;;;;;;;;;;4939600;29;20039;-90
2022/07/08 18:09:50;;;;;;;0.00;0.00;;;;;;;;;;4939509;28;20569;-88
2022/07/08 18:12:16;;;;;;;0.00;0.00;;;;;;;;;;4939780;29;20127;-88
2022/07/08 18:14:42;;;;;;;0.00;0.00;;;;;;;;;;4939387;29;20047;-88
2022/07/08 18:17:08;;;;;;;0.00;0.00;;;;;;;;;;4938643;29;20050;-89
2022/07/08 18:19:35;;;;;;;0.00;0.00;;;;;;;;;;4939408;28;20115;-91
2022/07/08 18:22:01;;;;;;;0.00;0.00;;;;;;;;;;4939368;29;20055;-90
2022/07/08 18:24:28;;;;;;;0.00;0.00;;;;;;;;;;4939284;29;20078;-89
2022/07/08 18:26:53;;;;;;;0.00;0.00;;;;;;;;;;4939350;29;20048;-90
2022/07/08 18:29:22;;;;;;;0.00;0.00;;;;;;;;;;4939182;29;20050;-93
2022/07/08 18:31:48;;;;;;;0.00;0.00;;;;;;;;;;4939469;29;20090;-90
2022/07/08 18:34:14;;;;;;;0.00;0.00;;;;;;;;;;4939257;29;20043;-87
2022/07/08 18:36:40;;;;;;;0.00;0.00;;;;;;;;;;4939237;29;20150;-88
2022/07/08 18:39:06;;;;;;;0.00;0.00;;;;;;;;;;4939082;29;20522;-87
2022/07/08 18:41:32;;;;;;;0.00;0.00;;;;;;;;;;4939189;29;20129;-88
2022/07/08 18:43:58;;;;;;;0.00;0.00;;;;;;;;;;4938959;29;20121;-90
2022/07/08 18:46:24;;;;;;;0.00;0.00;;;;;;;;;;4938995;29;20047;-88
2022/07/08 18:48:49;;;;;;;0.00;0.00;;;;;;;;;;4938955;29;20061;-89
2022/07/08 18:51:15;;;;;;;0.00;0.00;;;;;;;;;;4922875;29;20475;-88
2022/07/08 18:53:41;;;;;;;0.00;0.00;;;;;;;;;;4938587;29;20075;-88
2022/07/08 18:56:08;;;;;;;0.00;0.00;;;;;;;;;;4938744;29;20454;-90
2022/07/08 18:58:38;;;;;;;0.00;0.00;;;;;;;;;;4922667;29;20130;-89
2022/07/08 19:01:04;;;;;;;0.00;0.00;;;;;;;;;;4938576;29;20047;-87
2022/07/08 19:03:30;;;;;;;0.00;0.00;;;;;;;;;;4938449;29;20050;-88
2022/07/08 19:05:57;;;;;;;0.00;0.00;;;;;;;;;;4938713;29;20509;-90
2022/07/08 19:08:24;;;;;;;0.00;0.00;;;;;;;;;;4938438;29;20479;-89
2022/07/08 19:10:54;;;;;;;0.00;0.00;;;;;;;;;;4938529;29;20088;-88
2022/07/08 19:13:20;;;;;;;0.00;0.00;;;;;;;;;;4937602;29;20039;-87
2022/07/08 19:15:46;;;;;;;0.00;0.00;;;;;;;;;;4938832;29;20038;-89
2022/07/08 19:18:16;;;;;;;0.00;0.00;;;;;;;;;;4938519;29;20505;-88
2022/07/08 19:20:42;;;;;;;0.00;0.00;;;;;;;;;;4938667;29;20050;-89
2022/07/08 19:23:08;;;;;;;0.00;0.00;;;;;;;;;;4938297;29;20051;-89
2022/07/08 19:25:34;;;;;;;0.00;0.00;;;;;;;;;;4938386;29;20043;-90
2022/07/08 19:28:00;;;;;;;0.00;0.00;;;;;;;;;;4938353;28;20051;-88
2022/07/08 19:30:26;;;;;;;0.00;0.00;;;;;;;;;;4937723;29;20455;-89
2022/07/08 19:32:52;;;;;;;0.00;0.00;;;;;;;;;;4938342;29;20098;-89
2022/07/08 19:35:18;;;;;;;0.00;0.00;;;;;;;;;;4937735;29;20065;-90
2022/07/08 19:37:44;;;;;;;0.00;0.00;;;;;;;;;;4938368;29;20126;-89
2022/07/08 19:40:10;;;;;;;0.00;0.00;;;;;;;;;;4937910;29;20467;-89
2022/07/08 19:42:36;;;;;;;0.00;0.00;;;;;;;;;;4938131;29;20482;-89
2022/07/08 19:45:02;;;;;;;0.00;0.00;;;;;;;;;;4937719;29;20054;-90
2022/07/08 19:47:29;;;;;;;0.00;0.00;;;;;;;;;;4938115;29;20122;-89
2022/07/08 19:49:54;;;;;;;0.00;0.00;;;;;;;;;;4937726;29;20039;-89
2022/07/08 19:52:20;;;;;;;0.00;0.00;;;;;;;;;;4937801;29;20123;-89
2022/07/08 19:54:46;;;;;;;0.00;0.00;;;;;;;;;;4937673;29;20062;-90
2022/07/08 19:57:12;;;;;;;0.00;0.00;;;;;;;;;;4937929;29;20511;-91
2022/07/08 19:59:38;;;;;;;0.00;0.00;;;;;;;;;;4937510;28;20043;-91
2022/07/08 20:02:04;;;;;;;0.00;0.00;;;;;;;;;;4937778;29;20046;-90
2022/07/08 20:04:31;;;;;;;0.00;0.00;;;;;;;;;;4937474;29;20126;-91
2022/07/08 20:06:57;;;;;;;0.00;0.00;;;;;;;;;;4937829;29;20043;-91
2022/07/08 20:09:25;;;;;;;0.00;0.00;;;;;;;;;;4937840;29;20039;-91
2022/07/08 20:11:51;;;;;;;0.00;0.00;;;;;;;;;;4937681;29;20044;-89
2022/07/08 20:14:17;;;;;;;0.00;0.00;;;;;;;;;;4937607;29;20043;-88
2022/07/08 20:16:43;;;;;;;0.00;0.00;;;;;;;;;;4936722;29;20047;-88
2022/07/08 20:19:09;;;;;;;0.00;0.00;;;;;;;;;;4945108;29;20465;-90
2022/07/08 20:21:35;;;;;;;0.00;0.00;;;;;;;;;;4937131;29;20047;-90
2022/07/08 20:24:01;;;;;;;0.00;0.00;;;;;;;;;;4937373;29;20047;-90
2022/07/08 20:26:27;;;;;;;0.00;0.00;;;;;;;;;;4937438;29;20455;-90
2022/07/08 20:28:55;;;;;;;0.00;0.00;;;;;;;;;;4937556;29;20367;-90
2022/07/08 20:31:21;;;;;;;0.00;0.00;;;;;;;;;;4937104;29;20051;-91
2022/07/08 20:33:47;;;;;;;0.00;0.00;;;;;;;;;;4937401;29;20099;-90
2022/07/08 20:36:13;;;;;;;0.00;0.00;;;;;;;;;;4937064;29;20518;-89
2022/07/08 20:38:39;;;;;;;0.00;0.00;;;;;;;;;;4937508;29;20125;-90
2022/07/08 20:43:49;;;;;;;0.00;0.00;;;;;;;;;;4947143;28;20041;-88
2022/07/08 20:46:15;;;;;;;0.00;0.00;;;;;;;;;;4979436;28;20397;-86
2022/07/08 20:48:41;;;;;;;0.00;0.00;;;;;;;;;;4979705;28;20519;-86
2022/07/08 20:51:07;;;;;;;0.00;0.00;;;;;;;;;;4996818;28;20038;-87
2022/07/08 20:53:33;;;;;;;0.00;0.00;;;;;;;;;;4994859;28;20485;-89
2022/07/08 20:55:59;;;;;;;0.00;0.00;;;;;;;;;;4979968;28;20141;-85
2022/07/08 20:58:25;;;;;;;0.00;0.00;;;;;;;;;;4993479;28;20525;-88
2022/07/08 21:00:51;;;;;;;0.00;0.00;;;;;;;;;;4988475;28;20038;-88
2022/07/08 21:03:17;;;;;;;0.00;0.00;;;;;;;;;;4979606;28;20133;-93
2022/07/08 21:05:43;;;;;;;0.00;0.00;;;;;;;;;;4963579;28;20158;-89
2022/07/08 21:08:09;;;;;;;0.00;0.00;;;;;;;;;;4979476;28;20048;-90
2022/07/08 21:10:36;;;;;;;0.00;0.00;;;;;;;;;;4979205;28;20133;-89
2022/07/08 21:13:02;;;;;;;0.00;0.00;;;;;;;;;;4990247;28;20428;-89
2022/07/08 21:15:27;;;;;;;0.00;0.00;;;;;;;;;;4979046;28;20042;-89
2022/07/08 21:17:53;;;;;;;0.00;0.00;;;;;;;;;;4988906;28;20046;-90
2022/07/08 21:20:19;;;;;;;0.00;0.00;;;;;;;;;;4978946;28;20039;-89
2022/07/08 21:22:45;;;;;;;0.00;0.00;;;;;;;;;;4987850;28;20388;-90
2022/07/08 21:25:11;;;;;;;0.00;0.00;;;;;;;;;;4978815;28;20046;-90
2022/07/08 21:27:37;;;;;;;0.00;0.00;;;;;;;;;;4979108;28;20034;-89
2022/07/08 21:30:07;;;;;;;0.00;0.00;;;;;;;;;;4989745;28;20035;-89
2022/07/08 21:32:33;;;;;;;0.00;0.00;;;;;;;;;;4962951;28;20096;-90
2022/07/08 21:34:59;;;;;;;0.00;0.00;;;;;;;;;;4988914;28;20042;-88
2022/07/08 21:37:25;;;;;;;0.00;0.00;;;;;;;;;;4978996;28;20054;-89
2022/07/08 21:39:51;;;;;;;0.00;0.00;;;;;;;;;;4962627;28;20082;-90
2022/07/08 21:42:16;;;;;;;0.00;0.00;;;;;;;;;;4991453;28;20138;-90
2022/07/08 21:44:42;;;;;;;0.00;0.00;;;;;;;;;;4978761;28;20038;-89
2022/07/08 21:47:08;;;;;;;0.00;0.00;;;;;;;;;;4978539;28;20137;-88
2022/07/08 21:49:34;;;;;;;0.00;0.00;;;;;;;;;;4978722;28;20039;-88
2022/07/08 21:52:00;;;;;;;0.00;0.00;;;;;;;;;;4995917;28;20622;-90
2022/07/08 21:54:30;;;;;;;0.00;0.00;;;;;;;;;;4962536;28;20038;-89
2022/07/08 21:56:56;;;;;;;0.00;0.00;;;;;;;;;;4978871;28;20078;-88
2022/07/08 21:59:22;;;;;;;0.00;0.00;;;;;;;;;;4978577;28;20045;-90
2022/07/08 22:01:48;;;;;;;0.00;0.00;;;;;;;;;;4987080;28;20038;-89
2022/07/08 22:04:14;;;;;;;0.00;0.00;;;;;;;;;;4978425;28;20050;-88
2022/07/08 22:06:40;;;;;;;0.00;0.00;;;;;;;;;;4978018;28;20125;-89
2022/07/08 22:09:06;;;;;;;0.00;0.00;;;;;;;;;;4989494;28;20042;-89
2022/07/08 22:11:32;;;;;;;0.00;0.00;;;;;;;;;;4978031;28;20046;-92
2022/07/08 22:13:59;;;;;;;0.00;0.00;;;;;;;;;;4962363;28;20061;-89
2022/07/08 22:16:26;;;;;;;0.00;0.00;;;;;;;;;;4978098;28;20398;-88
2022/07/08 22:18:52;;;;;;;0.00;0.00;;;;;;;;;;4961879;28;20046;-88
2022/07/08 22:21:17;;;;;;;0.00;0.00;;;;;;;;;;4990551;28;20039;-88
2022/07/08 22:23:43;;;;;;;0.00;0.00;;;;;;;;;;4995344;28;20046;-87
2022/07/08 22:26:09;;;;;;;0.00;0.00;;;;;;;;;;4989594;28;20050;-88
2022/07/08 22:28:35;;;;;;;0.00;0.00;;;;;;;;;;4978136;28;20104;-88
2022/07/08 22:31:01;;;;;;;0.00;0.00;;;;;;;;;;4988448;28;20366;-87
2022/07/08 22:33:27;;;;;;;0.00;0.00;;;;;;;;;;4978321;28;20454;-89
2022/07/08 22:35:53;;;;;;;0.00;0.00;;;;;;;;;;4987204;28;20070;-87
2022/07/08 22:38:19;;;;;;;0.00;0.00;;;;;;;;;;4977717;28;20078;-88
2022/07/08 22:40:45;;;;;;;0.00;0.00;;;;;;;;;;4985876;28;20109;-87
2022/07/08 22:43:11;;;;;;;0.00;0.00;;;;;;;;;;4977732;28;20046;-88
2022/07/08 22:45:38;;;;;;;0.00;0.00;;;;;;;;;;4977290;28;20069;-88
2022/07/08 22:48:05;;;;;;;0.00;0.00;;;;;;;;;;4977555;28;20046;-89
2022/07/08 22:50:31;;;;;;;0.00;0.00;;;;;;;;;;4992136;28;20144;-88
2022/07/08 22:52:57;;;;;;;0.00;0.00;;;;;;;;;;4961294;28;20513;-89
2022/07/08 22:55:23;;;;;;;0.00;0.00;;;;;;;;;;4991014;28;20386;-89
2022/07/08 22:57:49;;;;;;;0.00;0.00;;;;;;;;;;4986273;28;20047;-88
2022/07/08 23:00:15;;;;;;;0.00;0.00;;;;;;;;;;4977384;28;20050;-88
2022/07/08 23:02:41;;;;;;;0.00;0.00;;;;;;;;;;4977007;28;20137;-88
2022/07/08 23:05:08;;;;;;;0.00;0.00;;;;;;;;;;4987932;28;20046;-88
2022/07/08 23:07:34;;;;;;;0.00;0.00;;;;;;;;;;4977173;28;20042;-88
2022/07/08 23:10:00;;;;;;;0.00;0.00;;;;;;;;;;4987562;28;20042;-88
2022/07/08 23:12:26;;;;;;;0.00;0.00;;;;;;;;;;4977084;28;20042;-90
2022/07/08 23:14:52;;;;;;;0.00;0.00;;;;;;;;;;4960765;28;20105;-90
2022/07/08 23:17:18;;;;;;;0.00;0.00;;;;;;;;;;4961004;28;20038;-89
2022/07/08 23:19:44;;;;;;;0.00;0.00;;;;;;;;;;4985619;28;20397;-89
2022/07/08 23:22:10;;;;;;;0.00;0.00;;;;;;;;;;4976653;28;20088;-88
2022/07/08 23:24:36;;;;;;;0.00;0.00;;;;;;;;;;4976829;28;20039;-90
2022/07/08 23:27:02;;;;;;;0.00;0.00;;;;;;;;;;4987596;28;20045;-90
2022/07/08 23:29:28;;;;;;;0.00;0.00;;;;;;;;;;4977093;28;20046;-87
2022/07/08 23:31:54;;;;;;;0.00;0.00;;;;;;;;;;4986152;28;20512;-89
2022/07/08 23:34:20;;;;;;;0.00;0.00;;;;;;;;;;4976811;28;20053;-87
2022/07/08 23:36:46;;;;;;;0.00;0.00;;;;;;;;;;4984927;28;20085;-89
2022/07/08 23:39:12;;;;;;;0.00;0.00;;;;;;;;;;4976635;28;20400;-88
2022/07/08 23:41:38;;;;;;;0.00;0.00;;;;;;;;;;4976508;28;20048;-88
2022/07/08 23:44:04;;;;;;;0.00;0.00;;;;;;;;;;4987797;28;20043;-89
2022/07/08 23:46:30;;;;;;;0.00;0.00;;;;;;;;;;4976215;28;20042;-88
2022/07/08 23:48:56;;;;;;;0.00;0.00;;;;;;;;;;4986335;28;20088;-90
2022/07/08 23:51:22;;;;;;;0.00;0.00;;;;;;;;;;4976150;28;20097;-88
2022/07/08 23:53:48;;;;;;;0.00;0.00;;;;;;;;;;4985358;28;20034;-88
2022/07/08 23:56:14;;;;;;;0.00;0.00;;;;;;;;;;4976130;28;20440;-87
2022/07/08 23:58:40;;;;;;;0.00;0.00;;;;;;;;;;4960212;28;20050;-90
